﻿<?xml version="1.0" encoding="UTF-8" standalone="no" ?>
<gpx xmlns="http://www.topografix.com/GPX/1/1" creator="CompeGPS" version="1.1" xmlns:xsi="http://www.w3.org/2001/XMLSchema-instance" xsi:schemaLocation="http://www.topografix.com/GPX/1/1 http://www.topografix.com/GPX/1/1/gpx.xsd">
  <metadata>
    <link href="http://www.compegps.com">
      <text>CompeGPS TEAM, SL</text>
    </link>
    <time>2016-12-26T20:47:42Z</time>
    <bounds maxlat="38.247197" maxlon="-1.415216" minlat="38.231906" minlon="-1.441562"/>
  </metadata>
  <trk>
    <name>Cieza_PaseoRio_track_gpx</name>
    <trkseg>
      <trkpt lat="38.236189" lon="-1.433158">
        <ele>172.7</ele>
        <time>2016-03-26T11:49:32Z</time>
      </trkpt>
      <trkpt lat="38.236199" lon="-1.433043">
        <ele>172.7</ele>
        <time>2016-03-26T11:49:33Z</time>
      </trkpt>
      <trkpt lat="38.236207" lon="-1.432924">
        <ele>171.7</ele>
        <time>2016-03-26T11:49:45Z</time>
      </trkpt>
      <trkpt lat="38.236110" lon="-1.432910">
        <ele>171.2</ele>
        <time>2016-03-26T11:49:52Z</time>
      </trkpt>
      <trkpt lat="38.235997" lon="-1.432911">
        <ele>171.2</ele>
        <time>2016-03-26T11:50:01Z</time>
      </trkpt>
      <trkpt lat="38.235733" lon="-1.432845">
        <ele>171.2</ele>
        <time>2016-03-26T11:50:17Z</time>
      </trkpt>
      <trkpt lat="38.235603" lon="-1.432759">
        <ele>170.8</ele>
        <time>2016-03-26T11:50:32Z</time>
      </trkpt>
      <trkpt lat="38.235387" lon="-1.432643">
        <ele>170.3</ele>
        <time>2016-03-26T11:50:46Z</time>
      </trkpt>
      <trkpt lat="38.235192" lon="-1.432530">
        <ele>169.8</ele>
        <time>2016-03-26T11:51:00Z</time>
      </trkpt>
      <trkpt lat="38.235137" lon="-1.432463">
        <ele>170.3</ele>
        <time>2016-03-26T11:51:07Z</time>
      </trkpt>
      <trkpt lat="38.234929" lon="-1.432249">
        <ele>169.8</ele>
        <time>2016-03-26T11:51:23Z</time>
      </trkpt>
      <trkpt lat="38.234763" lon="-1.432077">
        <ele>169.8</ele>
        <time>2016-03-26T11:51:39Z</time>
      </trkpt>
      <trkpt lat="38.234545" lon="-1.431866">
        <ele>170.8</ele>
        <time>2016-03-26T11:52:00Z</time>
      </trkpt>
      <trkpt lat="38.234412" lon="-1.431756">
        <ele>170.8</ele>
        <time>2016-03-26T11:52:13Z</time>
      </trkpt>
      <trkpt lat="38.234220" lon="-1.431586">
        <ele>169.8</ele>
        <time>2016-03-26T11:52:30Z</time>
      </trkpt>
      <trkpt lat="38.234029" lon="-1.431400">
        <ele>171.7</ele>
        <time>2016-03-26T11:52:48Z</time>
      </trkpt>
      <trkpt lat="38.233868" lon="-1.431240">
        <ele>170.3</ele>
        <time>2016-03-26T11:53:03Z</time>
      </trkpt>
      <trkpt lat="38.233738" lon="-1.431099">
        <ele>171.2</ele>
        <time>2016-03-26T11:53:15Z</time>
      </trkpt>
      <trkpt lat="38.233724" lon="-1.431089">
        <ele>171.2</ele>
        <time>2016-03-26T11:53:16Z</time>
      </trkpt>
      <trkpt lat="38.233714" lon="-1.431077">
        <ele>170.8</ele>
        <time>2016-03-26T11:53:17Z</time>
      </trkpt>
      <trkpt lat="38.233704" lon="-1.431064">
        <ele>171.7</ele>
        <time>2016-03-26T11:53:18Z</time>
      </trkpt>
      <trkpt lat="38.233693" lon="-1.431053">
        <ele>171.2</ele>
        <time>2016-03-26T11:53:19Z</time>
      </trkpt>
      <trkpt lat="38.233682" lon="-1.431042">
        <ele>171.2</ele>
        <time>2016-03-26T11:53:20Z</time>
      </trkpt>
      <trkpt lat="38.233613" lon="-1.430972">
        <ele>171.2</ele>
        <time>2016-03-26T11:53:27Z</time>
      </trkpt>
      <trkpt lat="38.233601" lon="-1.430964">
        <ele>170.8</ele>
        <time>2016-03-26T11:53:28Z</time>
      </trkpt>
      <trkpt lat="38.233445" lon="-1.430729">
        <ele>171.7</ele>
        <time>2016-03-26T11:53:43Z</time>
      </trkpt>
      <trkpt lat="38.233348" lon="-1.430585">
        <ele>171.2</ele>
        <time>2016-03-26T11:53:57Z</time>
      </trkpt>
      <trkpt lat="38.233166" lon="-1.430311">
        <ele>171.2</ele>
        <time>2016-03-26T11:54:12Z</time>
      </trkpt>
      <trkpt lat="38.233061" lon="-1.430166">
        <ele>171.2</ele>
        <time>2016-03-26T11:54:26Z</time>
      </trkpt>
      <trkpt lat="38.232964" lon="-1.429916">
        <ele>170.8</ele>
        <time>2016-03-26T11:54:42Z</time>
      </trkpt>
      <trkpt lat="38.232856" lon="-1.429664">
        <ele>171.2</ele>
        <time>2016-03-26T11:54:57Z</time>
      </trkpt>
      <trkpt lat="38.232749" lon="-1.429375">
        <ele>170.8</ele>
        <time>2016-03-26T11:55:15Z</time>
      </trkpt>
      <trkpt lat="38.232718" lon="-1.429292">
        <ele>171.2</ele>
        <time>2016-03-26T11:55:19Z</time>
      </trkpt>
      <trkpt lat="38.232706" lon="-1.429278">
        <ele>170.8</ele>
        <time>2016-03-26T11:55:20Z</time>
      </trkpt>
      <trkpt lat="38.232697" lon="-1.429260">
        <ele>170.3</ele>
        <time>2016-03-26T11:55:21Z</time>
      </trkpt>
      <trkpt lat="38.232668" lon="-1.429193">
        <ele>171.2</ele>
        <time>2016-03-26T11:55:25Z</time>
      </trkpt>
      <trkpt lat="38.232556" lon="-1.428938">
        <ele>171.7</ele>
        <time>2016-03-26T11:55:39Z</time>
      </trkpt>
      <trkpt lat="38.232486" lon="-1.428730">
        <ele>171.2</ele>
        <time>2016-03-26T11:55:54Z</time>
      </trkpt>
      <trkpt lat="38.232434" lon="-1.428445">
        <ele>171.7</ele>
        <time>2016-03-26T11:56:10Z</time>
      </trkpt>
      <trkpt lat="38.232409" lon="-1.428186">
        <ele>171.2</ele>
        <time>2016-03-26T11:56:25Z</time>
      </trkpt>
      <trkpt lat="38.232414" lon="-1.428133">
        <ele>170.8</ele>
        <time>2016-03-26T11:56:28Z</time>
      </trkpt>
      <trkpt lat="38.232416" lon="-1.428118">
        <ele>170.8</ele>
        <time>2016-03-26T11:56:29Z</time>
      </trkpt>
      <trkpt lat="38.232414" lon="-1.428093">
        <ele>171.2</ele>
        <time>2016-03-26T11:56:30Z</time>
      </trkpt>
      <trkpt lat="38.232415" lon="-1.428073">
        <ele>171.7</ele>
        <time>2016-03-26T11:56:31Z</time>
      </trkpt>
      <trkpt lat="38.232418" lon="-1.428053">
        <ele>171.7</ele>
        <time>2016-03-26T11:56:32Z</time>
      </trkpt>
      <trkpt lat="38.232422" lon="-1.428034">
        <ele>171.2</ele>
        <time>2016-03-26T11:56:33Z</time>
      </trkpt>
      <trkpt lat="38.232425" lon="-1.428013">
        <ele>170.8</ele>
        <time>2016-03-26T11:56:34Z</time>
      </trkpt>
      <trkpt lat="38.232429" lon="-1.427990">
        <ele>170.8</ele>
        <time>2016-03-26T11:56:35Z</time>
      </trkpt>
      <trkpt lat="38.232482" lon="-1.427668">
        <ele>171.7</ele>
        <time>2016-03-26T11:56:51Z</time>
      </trkpt>
      <trkpt lat="38.232566" lon="-1.427423">
        <ele>171.2</ele>
        <time>2016-03-26T11:57:08Z</time>
      </trkpt>
      <trkpt lat="38.232639" lon="-1.427141">
        <ele>171.2</ele>
        <time>2016-03-26T11:57:22Z</time>
      </trkpt>
      <trkpt lat="38.232718" lon="-1.426890">
        <ele>170.3</ele>
        <time>2016-03-26T11:57:38Z</time>
      </trkpt>
      <trkpt lat="38.232833" lon="-1.426589">
        <ele>170.8</ele>
        <time>2016-03-26T11:57:55Z</time>
      </trkpt>
      <trkpt lat="38.232927" lon="-1.426301">
        <ele>171.2</ele>
        <time>2016-03-26T11:58:12Z</time>
      </trkpt>
      <trkpt lat="38.232929" lon="-1.426269">
        <ele>170.8</ele>
        <time>2016-03-26T11:58:14Z</time>
      </trkpt>
      <trkpt lat="38.232931" lon="-1.426254">
        <ele>170.8</ele>
        <time>2016-03-26T11:58:15Z</time>
      </trkpt>
      <trkpt lat="38.232934" lon="-1.426237">
        <ele>170.8</ele>
        <time>2016-03-26T11:58:16Z</time>
      </trkpt>
      <trkpt lat="38.233009" lon="-1.425970">
        <ele>170.8</ele>
        <time>2016-03-26T11:58:29Z</time>
      </trkpt>
      <trkpt lat="38.233069" lon="-1.425764">
        <ele>170.8</ele>
        <time>2016-03-26T11:58:45Z</time>
      </trkpt>
      <trkpt lat="38.233129" lon="-1.425436">
        <ele>170.3</ele>
        <time>2016-03-26T11:59:01Z</time>
      </trkpt>
      <trkpt lat="38.233134" lon="-1.425286">
        <ele>170.3</ele>
        <time>2016-03-26T11:59:09Z</time>
      </trkpt>
      <trkpt lat="38.233132" lon="-1.425267">
        <ele>170.3</ele>
        <time>2016-03-26T11:59:10Z</time>
      </trkpt>
      <trkpt lat="38.233133" lon="-1.425252">
        <ele>170.3</ele>
        <time>2016-03-26T11:59:11Z</time>
      </trkpt>
      <trkpt lat="38.233134" lon="-1.425235">
        <ele>170.3</ele>
        <time>2016-03-26T11:59:12Z</time>
      </trkpt>
      <trkpt lat="38.233132" lon="-1.425219">
        <ele>170.3</ele>
        <time>2016-03-26T11:59:13Z</time>
      </trkpt>
      <trkpt lat="38.233131" lon="-1.425201">
        <ele>170.3</ele>
        <time>2016-03-26T11:59:14Z</time>
      </trkpt>
      <trkpt lat="38.233131" lon="-1.425186">
        <ele>169.8</ele>
        <time>2016-03-26T11:59:15Z</time>
      </trkpt>
      <trkpt lat="38.233068" lon="-1.424909">
        <ele>170.3</ele>
        <time>2016-03-26T11:59:31Z</time>
      </trkpt>
      <trkpt lat="38.233025" lon="-1.424726">
        <ele>172.2</ele>
        <time>2016-03-26T11:59:43Z</time>
      </trkpt>
      <trkpt lat="38.233034" lon="-1.424523">
        <ele>170.3</ele>
        <time>2016-03-26T12:00:04Z</time>
      </trkpt>
      <trkpt lat="38.233022" lon="-1.424291">
        <ele>169.3</ele>
        <time>2016-03-26T12:00:17Z</time>
      </trkpt>
      <trkpt lat="38.233024" lon="-1.424086">
        <ele>169.3</ele>
        <time>2016-03-26T12:00:32Z</time>
      </trkpt>
      <trkpt lat="38.232975" lon="-1.423755">
        <ele>169.3</ele>
        <time>2016-03-26T12:00:46Z</time>
      </trkpt>
      <trkpt lat="38.232976" lon="-1.423734">
        <ele>169.3</ele>
        <time>2016-03-26T12:00:47Z</time>
      </trkpt>
      <trkpt lat="38.232977" lon="-1.423716">
        <ele>169.3</ele>
        <time>2016-03-26T12:00:48Z</time>
      </trkpt>
      <trkpt lat="38.232974" lon="-1.423697">
        <ele>169.3</ele>
        <time>2016-03-26T12:00:49Z</time>
      </trkpt>
      <trkpt lat="38.232958" lon="-1.423396">
        <ele>169.3</ele>
        <time>2016-03-26T12:01:07Z</time>
      </trkpt>
      <trkpt lat="38.232909" lon="-1.423014">
        <ele>169.8</ele>
        <time>2016-03-26T12:01:24Z</time>
      </trkpt>
      <trkpt lat="38.232894" lon="-1.422812">
        <ele>168.9</ele>
        <time>2016-03-26T12:01:39Z</time>
      </trkpt>
      <trkpt lat="38.232833" lon="-1.422487">
        <ele>168.9</ele>
        <time>2016-03-26T12:01:55Z</time>
      </trkpt>
      <trkpt lat="38.232792" lon="-1.422376">
        <ele>168.4</ele>
        <time>2016-03-26T12:02:05Z</time>
      </trkpt>
      <trkpt lat="38.232792" lon="-1.422360">
        <ele>168.4</ele>
        <time>2016-03-26T12:02:06Z</time>
      </trkpt>
      <trkpt lat="38.232781" lon="-1.422318">
        <ele>168.4</ele>
        <time>2016-03-26T12:02:09Z</time>
      </trkpt>
      <trkpt lat="38.232652" lon="-1.422029">
        <ele>168.9</ele>
        <time>2016-03-26T12:02:25Z</time>
      </trkpt>
      <trkpt lat="38.232536" lon="-1.421782">
        <ele>168.4</ele>
        <time>2016-03-26T12:02:42Z</time>
      </trkpt>
      <trkpt lat="38.232428" lon="-1.421472">
        <ele>168.9</ele>
        <time>2016-03-26T12:02:59Z</time>
      </trkpt>
      <trkpt lat="38.232308" lon="-1.421205">
        <ele>168.9</ele>
        <time>2016-03-26T12:03:16Z</time>
      </trkpt>
      <trkpt lat="38.232221" lon="-1.420956">
        <ele>167.9</ele>
        <time>2016-03-26T12:03:33Z</time>
      </trkpt>
      <trkpt lat="38.232091" lon="-1.420669">
        <ele>167.9</ele>
        <time>2016-03-26T12:03:49Z</time>
      </trkpt>
      <trkpt lat="38.232026" lon="-1.420341">
        <ele>168.4</ele>
        <time>2016-03-26T12:04:06Z</time>
      </trkpt>
      <trkpt lat="38.231982" lon="-1.420125">
        <ele>168.9</ele>
        <time>2016-03-26T12:04:20Z</time>
      </trkpt>
      <trkpt lat="38.231936" lon="-1.419738">
        <ele>168.4</ele>
        <time>2016-03-26T12:04:40Z</time>
      </trkpt>
      <trkpt lat="38.231906" lon="-1.419458">
        <ele>168.4</ele>
        <time>2016-03-26T12:04:56Z</time>
      </trkpt>
      <trkpt lat="38.231937" lon="-1.419300">
        <ele>168.9</ele>
        <time>2016-03-26T12:05:12Z</time>
      </trkpt>
      <trkpt lat="38.232025" lon="-1.419067">
        <ele>169.3</ele>
        <time>2016-03-26T12:05:28Z</time>
      </trkpt>
      <trkpt lat="38.232194" lon="-1.418852">
        <ele>169.3</ele>
        <time>2016-03-26T12:05:45Z</time>
      </trkpt>
      <trkpt lat="38.232369" lon="-1.418617">
        <ele>167.9</ele>
        <time>2016-03-26T12:06:03Z</time>
      </trkpt>
      <trkpt lat="38.232496" lon="-1.418379">
        <ele>167.9</ele>
        <time>2016-03-26T12:06:20Z</time>
      </trkpt>
      <trkpt lat="38.232643" lon="-1.418166">
        <ele>168.4</ele>
        <time>2016-03-26T12:06:36Z</time>
      </trkpt>
      <trkpt lat="38.232706" lon="-1.418058">
        <ele>167.9</ele>
        <time>2016-03-26T12:06:45Z</time>
      </trkpt>
      <trkpt lat="38.232714" lon="-1.418035">
        <ele>168.4</ele>
        <time>2016-03-26T12:06:46Z</time>
      </trkpt>
      <trkpt lat="38.232770" lon="-1.417735">
        <ele>167.9</ele>
        <time>2016-03-26T12:07:01Z</time>
      </trkpt>
      <trkpt lat="38.232814" lon="-1.417461">
        <ele>167.4</ele>
        <time>2016-03-26T12:07:18Z</time>
      </trkpt>
      <trkpt lat="38.232871" lon="-1.417173">
        <ele>167.9</ele>
        <time>2016-03-26T12:07:32Z</time>
      </trkpt>
      <trkpt lat="38.232919" lon="-1.416987">
        <ele>167.9</ele>
        <time>2016-03-26T12:07:46Z</time>
      </trkpt>
      <trkpt lat="38.232991" lon="-1.416668">
        <ele>167.4</ele>
        <time>2016-03-26T12:08:02Z</time>
      </trkpt>
      <trkpt lat="38.233057" lon="-1.416460">
        <ele>167.4</ele>
        <time>2016-03-26T12:08:16Z</time>
      </trkpt>
      <trkpt lat="38.233065" lon="-1.416166">
        <ele>167.9</ele>
        <time>2016-03-26T12:08:30Z</time>
      </trkpt>
      <trkpt lat="38.233072" lon="-1.415949">
        <ele>167.4</ele>
        <time>2016-03-26T12:08:46Z</time>
      </trkpt>
      <trkpt lat="38.233055" lon="-1.415628">
        <ele>168.9</ele>
        <time>2016-03-26T12:09:00Z</time>
      </trkpt>
      <trkpt lat="38.233045" lon="-1.415571">
        <ele>168.9</ele>
        <time>2016-03-26T12:09:03Z</time>
      </trkpt>
      <trkpt lat="38.233036" lon="-1.415555">
        <ele>169.3</ele>
        <time>2016-03-26T12:09:04Z</time>
      </trkpt>
      <trkpt lat="38.233011" lon="-1.415513">
        <ele>168.4</ele>
        <time>2016-03-26T12:09:07Z</time>
      </trkpt>
      <trkpt lat="38.233000" lon="-1.415286">
        <ele>170.3</ele>
        <time>2016-03-26T12:09:20Z</time>
      </trkpt>
      <trkpt lat="38.233010" lon="-1.415278">
        <ele>169.8</ele>
        <time>2016-03-26T12:09:21Z</time>
      </trkpt>
      <trkpt lat="38.233021" lon="-1.415271">
        <ele>170.8</ele>
        <time>2016-03-26T12:09:22Z</time>
      </trkpt>
      <trkpt lat="38.233155" lon="-1.415252">
        <ele>170.3</ele>
        <time>2016-03-26T12:09:40Z</time>
      </trkpt>
      <trkpt lat="38.233304" lon="-1.415216">
        <ele>171.2</ele>
        <time>2016-03-26T12:09:53Z</time>
      </trkpt>
      <trkpt lat="38.233436" lon="-1.415288">
        <ele>170.8</ele>
        <time>2016-03-26T12:10:03Z</time>
      </trkpt>
      <trkpt lat="38.233439" lon="-1.415308">
        <ele>170.3</ele>
        <time>2016-03-26T12:10:04Z</time>
      </trkpt>
      <trkpt lat="38.233429" lon="-1.415481">
        <ele>169.3</ele>
        <time>2016-03-26T12:10:17Z</time>
      </trkpt>
      <trkpt lat="38.233435" lon="-1.415752">
        <ele>169.8</ele>
        <time>2016-03-26T12:10:28Z</time>
      </trkpt>
      <trkpt lat="38.233421" lon="-1.415790">
        <ele>169.8</ele>
        <time>2016-03-26T12:10:40Z</time>
      </trkpt>
      <trkpt lat="38.233422" lon="-1.415805">
        <ele>169.3</ele>
        <time>2016-03-26T12:10:48Z</time>
      </trkpt>
      <trkpt lat="38.233430" lon="-1.415816">
        <ele>169.8</ele>
        <time>2016-03-26T12:10:49Z</time>
      </trkpt>
      <trkpt lat="38.233437" lon="-1.415830">
        <ele>169.8</ele>
        <time>2016-03-26T12:10:50Z</time>
      </trkpt>
      <trkpt lat="38.233444" lon="-1.415848">
        <ele>169.8</ele>
        <time>2016-03-26T12:10:51Z</time>
      </trkpt>
      <trkpt lat="38.233448" lon="-1.415869">
        <ele>169.3</ele>
        <time>2016-03-26T12:10:52Z</time>
      </trkpt>
      <trkpt lat="38.233447" lon="-1.415889">
        <ele>169.3</ele>
        <time>2016-03-26T12:10:53Z</time>
      </trkpt>
      <trkpt lat="38.233445" lon="-1.415906">
        <ele>169.8</ele>
        <time>2016-03-26T12:10:54Z</time>
      </trkpt>
      <trkpt lat="38.233440" lon="-1.415926">
        <ele>169.3</ele>
        <time>2016-03-26T12:10:55Z</time>
      </trkpt>
      <trkpt lat="38.233416" lon="-1.416002">
        <ele>170.3</ele>
        <time>2016-03-26T12:10:59Z</time>
      </trkpt>
      <trkpt lat="38.233385" lon="-1.416243">
        <ele>169.3</ele>
        <time>2016-03-26T12:11:13Z</time>
      </trkpt>
      <trkpt lat="38.233350" lon="-1.416384">
        <ele>166.9</ele>
        <time>2016-03-26T12:11:21Z</time>
      </trkpt>
      <trkpt lat="38.233342" lon="-1.416434">
        <ele>168.4</ele>
        <time>2016-03-26T12:11:25Z</time>
      </trkpt>
      <trkpt lat="38.233343" lon="-1.416452">
        <ele>166.4</ele>
        <time>2016-03-26T12:11:26Z</time>
      </trkpt>
      <trkpt lat="38.233341" lon="-1.416557">
        <ele>166.9</ele>
        <time>2016-03-26T12:11:39Z</time>
      </trkpt>
      <trkpt lat="38.233273" lon="-1.416839">
        <ele>166.9</ele>
        <time>2016-03-26T12:11:53Z</time>
      </trkpt>
      <trkpt lat="38.233218" lon="-1.417024">
        <ele>167.4</ele>
        <time>2016-03-26T12:12:08Z</time>
      </trkpt>
      <trkpt lat="38.233126" lon="-1.417405">
        <ele>167.4</ele>
        <time>2016-03-26T12:12:28Z</time>
      </trkpt>
      <trkpt lat="38.233128" lon="-1.417422">
        <ele>167.4</ele>
        <time>2016-03-26T12:12:30Z</time>
      </trkpt>
      <trkpt lat="38.233102" lon="-1.417498">
        <ele>167.4</ele>
        <time>2016-03-26T12:12:35Z</time>
      </trkpt>
      <trkpt lat="38.233034" lon="-1.417854">
        <ele>167.4</ele>
        <time>2016-03-26T12:12:54Z</time>
      </trkpt>
      <trkpt lat="38.232962" lon="-1.418134">
        <ele>167.9</ele>
        <time>2016-03-26T12:13:10Z</time>
      </trkpt>
      <trkpt lat="38.232855" lon="-1.418365">
        <ele>167.4</ele>
        <time>2016-03-26T12:13:26Z</time>
      </trkpt>
      <trkpt lat="38.232701" lon="-1.418623">
        <ele>167.4</ele>
        <time>2016-03-26T12:13:44Z</time>
      </trkpt>
      <trkpt lat="38.232552" lon="-1.418838">
        <ele>168.9</ele>
        <time>2016-03-26T12:14:01Z</time>
      </trkpt>
      <trkpt lat="38.232412" lon="-1.419045">
        <ele>167.4</ele>
        <time>2016-03-26T12:14:18Z</time>
      </trkpt>
      <trkpt lat="38.232304" lon="-1.419294">
        <ele>167.4</ele>
        <time>2016-03-26T12:14:34Z</time>
      </trkpt>
      <trkpt lat="38.232234" lon="-1.419428">
        <ele>167.9</ele>
        <time>2016-03-26T12:14:51Z</time>
      </trkpt>
      <trkpt lat="38.232222" lon="-1.419509">
        <ele>167.4</ele>
        <time>2016-03-26T12:14:59Z</time>
      </trkpt>
      <trkpt lat="38.232219" lon="-1.419546">
        <ele>167.4</ele>
        <time>2016-03-26T12:15:04Z</time>
      </trkpt>
      <trkpt lat="38.232248" lon="-1.419828">
        <ele>168.4</ele>
        <time>2016-03-26T12:15:20Z</time>
      </trkpt>
      <trkpt lat="38.232284" lon="-1.419970">
        <ele>167.4</ele>
        <time>2016-03-26T12:15:33Z</time>
      </trkpt>
      <trkpt lat="38.232362" lon="-1.420241">
        <ele>167.9</ele>
        <time>2016-03-26T12:15:48Z</time>
      </trkpt>
      <trkpt lat="38.232433" lon="-1.420512">
        <ele>168.4</ele>
        <time>2016-03-26T12:16:04Z</time>
      </trkpt>
      <trkpt lat="38.232563" lon="-1.420814">
        <ele>169.3</ele>
        <time>2016-03-26T12:16:22Z</time>
      </trkpt>
      <trkpt lat="38.232626" lon="-1.421010">
        <ele>168.9</ele>
        <time>2016-03-26T12:16:36Z</time>
      </trkpt>
      <trkpt lat="38.232748" lon="-1.421334">
        <ele>168.9</ele>
        <time>2016-03-26T12:16:51Z</time>
      </trkpt>
      <trkpt lat="38.232785" lon="-1.421496">
        <ele>168.9</ele>
        <time>2016-03-26T12:17:05Z</time>
      </trkpt>
      <trkpt lat="38.232911" lon="-1.421773">
        <ele>168.9</ele>
        <time>2016-03-26T12:17:17Z</time>
      </trkpt>
      <trkpt lat="38.232946" lon="-1.421927">
        <ele>169.3</ele>
        <time>2016-03-26T12:17:30Z</time>
      </trkpt>
      <trkpt lat="38.233110" lon="-1.422227">
        <ele>169.8</ele>
        <time>2016-03-26T12:17:46Z</time>
      </trkpt>
      <trkpt lat="38.233149" lon="-1.422438">
        <ele>168.9</ele>
        <time>2016-03-26T12:18:02Z</time>
      </trkpt>
      <trkpt lat="38.233214" lon="-1.422687">
        <ele>169.3</ele>
        <time>2016-03-26T12:18:15Z</time>
      </trkpt>
      <trkpt lat="38.233265" lon="-1.422894">
        <ele>168.9</ele>
        <time>2016-03-26T12:18:24Z</time>
      </trkpt>
      <trkpt lat="38.233265" lon="-1.422909">
        <ele>169.3</ele>
        <time>2016-03-26T12:18:25Z</time>
      </trkpt>
      <trkpt lat="38.233277" lon="-1.423083">
        <ele>169.3</ele>
        <time>2016-03-26T12:18:38Z</time>
      </trkpt>
      <trkpt lat="38.233329" lon="-1.423396">
        <ele>168.9</ele>
        <time>2016-03-26T12:18:51Z</time>
      </trkpt>
      <trkpt lat="38.233321" lon="-1.423600">
        <ele>168.9</ele>
        <time>2016-03-26T12:19:06Z</time>
      </trkpt>
      <trkpt lat="38.233359" lon="-1.423894">
        <ele>169.3</ele>
        <time>2016-03-26T12:19:20Z</time>
      </trkpt>
      <trkpt lat="38.233387" lon="-1.424196">
        <ele>169.3</ele>
        <time>2016-03-26T12:19:36Z</time>
      </trkpt>
      <trkpt lat="38.233399" lon="-1.424424">
        <ele>168.9</ele>
        <time>2016-03-26T12:19:52Z</time>
      </trkpt>
      <trkpt lat="38.233401" lon="-1.424690">
        <ele>170.3</ele>
        <time>2016-03-26T12:20:05Z</time>
      </trkpt>
      <trkpt lat="38.233409" lon="-1.424783">
        <ele>170.8</ele>
        <time>2016-03-26T12:20:09Z</time>
      </trkpt>
      <trkpt lat="38.233421" lon="-1.424806">
        <ele>170.8</ele>
        <time>2016-03-26T12:20:10Z</time>
      </trkpt>
      <trkpt lat="38.233433" lon="-1.424830">
        <ele>170.8</ele>
        <time>2016-03-26T12:20:11Z</time>
      </trkpt>
      <trkpt lat="38.233444" lon="-1.424851">
        <ele>170.8</ele>
        <time>2016-03-26T12:20:12Z</time>
      </trkpt>
      <trkpt lat="38.233455" lon="-1.424871">
        <ele>170.8</ele>
        <time>2016-03-26T12:20:13Z</time>
      </trkpt>
      <trkpt lat="38.233464" lon="-1.424886">
        <ele>170.3</ele>
        <time>2016-03-26T12:20:14Z</time>
      </trkpt>
      <trkpt lat="38.233471" lon="-1.424902">
        <ele>169.8</ele>
        <time>2016-03-26T12:20:15Z</time>
      </trkpt>
      <trkpt lat="38.233482" lon="-1.424916">
        <ele>169.8</ele>
        <time>2016-03-26T12:20:16Z</time>
      </trkpt>
      <trkpt lat="38.233507" lon="-1.425076">
        <ele>169.8</ele>
        <time>2016-03-26T12:20:29Z</time>
      </trkpt>
      <trkpt lat="38.233509" lon="-1.425372">
        <ele>169.3</ele>
        <time>2016-03-26T12:20:43Z</time>
      </trkpt>
      <trkpt lat="38.233506" lon="-1.425609">
        <ele>169.3</ele>
        <time>2016-03-26T12:20:57Z</time>
      </trkpt>
      <trkpt lat="38.233457" lon="-1.425931">
        <ele>169.3</ele>
        <time>2016-03-26T12:21:12Z</time>
      </trkpt>
      <trkpt lat="38.233414" lon="-1.426016">
        <ele>169.8</ele>
        <time>2016-03-26T12:21:17Z</time>
      </trkpt>
      <trkpt lat="38.233417" lon="-1.426027">
        <ele>169.3</ele>
        <time>2016-03-26T12:21:18Z</time>
      </trkpt>
      <trkpt lat="38.233420" lon="-1.426041">
        <ele>169.8</ele>
        <time>2016-03-26T12:21:19Z</time>
      </trkpt>
      <trkpt lat="38.233419" lon="-1.426055">
        <ele>169.8</ele>
        <time>2016-03-26T12:21:20Z</time>
      </trkpt>
      <trkpt lat="38.233416" lon="-1.426066">
        <ele>169.3</ele>
        <time>2016-03-26T12:21:21Z</time>
      </trkpt>
      <trkpt lat="38.233413" lon="-1.426078">
        <ele>169.3</ele>
        <time>2016-03-26T12:21:22Z</time>
      </trkpt>
      <trkpt lat="38.233406" lon="-1.426092">
        <ele>169.3</ele>
        <time>2016-03-26T12:21:23Z</time>
      </trkpt>
      <trkpt lat="38.233400" lon="-1.426106">
        <ele>169.3</ele>
        <time>2016-03-26T12:21:24Z</time>
      </trkpt>
      <trkpt lat="38.233293" lon="-1.426394">
        <ele>169.8</ele>
        <time>2016-03-26T12:21:42Z</time>
      </trkpt>
      <trkpt lat="38.233190" lon="-1.426678">
        <ele>169.8</ele>
        <time>2016-03-26T12:21:57Z</time>
      </trkpt>
      <trkpt lat="38.233138" lon="-1.426868">
        <ele>169.8</ele>
        <time>2016-03-26T12:22:11Z</time>
      </trkpt>
      <trkpt lat="38.233049" lon="-1.427120">
        <ele>169.8</ele>
        <time>2016-03-26T12:22:25Z</time>
      </trkpt>
      <trkpt lat="38.232962" lon="-1.427411">
        <ele>169.8</ele>
        <time>2016-03-26T12:22:39Z</time>
      </trkpt>
      <trkpt lat="38.232914" lon="-1.427530">
        <ele>169.3</ele>
        <time>2016-03-26T12:22:50Z</time>
      </trkpt>
      <trkpt lat="38.232905" lon="-1.427552">
        <ele>169.8</ele>
        <time>2016-03-26T12:22:51Z</time>
      </trkpt>
      <trkpt lat="38.232835" lon="-1.427873">
        <ele>170.3</ele>
        <time>2016-03-26T12:23:07Z</time>
      </trkpt>
      <trkpt lat="38.232801" lon="-1.428017">
        <ele>170.3</ele>
        <time>2016-03-26T12:23:23Z</time>
      </trkpt>
      <trkpt lat="38.232802" lon="-1.428033">
        <ele>170.8</ele>
        <time>2016-03-26T12:23:24Z</time>
      </trkpt>
      <trkpt lat="38.232803" lon="-1.428053">
        <ele>170.3</ele>
        <time>2016-03-26T12:23:25Z</time>
      </trkpt>
      <trkpt lat="38.232802" lon="-1.428073">
        <ele>170.8</ele>
        <time>2016-03-26T12:23:26Z</time>
      </trkpt>
      <trkpt lat="38.232799" lon="-1.428094">
        <ele>170.3</ele>
        <time>2016-03-26T12:23:27Z</time>
      </trkpt>
      <trkpt lat="38.232797" lon="-1.428113">
        <ele>170.8</ele>
        <time>2016-03-26T12:23:28Z</time>
      </trkpt>
      <trkpt lat="38.232796" lon="-1.428131">
        <ele>170.3</ele>
        <time>2016-03-26T12:23:29Z</time>
      </trkpt>
      <trkpt lat="38.232795" lon="-1.428150">
        <ele>170.3</ele>
        <time>2016-03-26T12:23:30Z</time>
      </trkpt>
      <trkpt lat="38.232853" lon="-1.428391">
        <ele>170.8</ele>
        <time>2016-03-26T12:23:43Z</time>
      </trkpt>
      <trkpt lat="38.232926" lon="-1.428661">
        <ele>170.3</ele>
        <time>2016-03-26T12:24:01Z</time>
      </trkpt>
      <trkpt lat="38.233042" lon="-1.428998">
        <ele>170.3</ele>
        <time>2016-03-26T12:24:19Z</time>
      </trkpt>
      <trkpt lat="38.233070" lon="-1.429152">
        <ele>171.2</ele>
        <time>2016-03-26T12:24:33Z</time>
      </trkpt>
      <trkpt lat="38.233146" lon="-1.429419">
        <ele>171.2</ele>
        <time>2016-03-26T12:24:50Z</time>
      </trkpt>
      <trkpt lat="38.233297" lon="-1.429728">
        <ele>171.2</ele>
        <time>2016-03-26T12:25:11Z</time>
      </trkpt>
      <trkpt lat="38.233415" lon="-1.429957">
        <ele>171.2</ele>
        <time>2016-03-26T12:25:27Z</time>
      </trkpt>
      <trkpt lat="38.233449" lon="-1.430035">
        <ele>171.2</ele>
        <time>2016-03-26T12:25:32Z</time>
      </trkpt>
      <trkpt lat="38.233459" lon="-1.430047">
        <ele>171.2</ele>
        <time>2016-03-26T12:25:33Z</time>
      </trkpt>
      <trkpt lat="38.233603" lon="-1.430289">
        <ele>171.7</ele>
        <time>2016-03-26T12:25:51Z</time>
      </trkpt>
      <trkpt lat="38.233777" lon="-1.430563">
        <ele>171.2</ele>
        <time>2016-03-26T12:26:10Z</time>
      </trkpt>
      <trkpt lat="38.233944" lon="-1.430779">
        <ele>171.7</ele>
        <time>2016-03-26T12:26:27Z</time>
      </trkpt>
      <trkpt lat="38.234116" lon="-1.431003">
        <ele>172.2</ele>
        <time>2016-03-26T12:26:45Z</time>
      </trkpt>
      <trkpt lat="38.234326" lon="-1.431219">
        <ele>172.2</ele>
        <time>2016-03-26T12:27:03Z</time>
      </trkpt>
      <trkpt lat="38.234523" lon="-1.431409">
        <ele>172.7</ele>
        <time>2016-03-26T12:27:21Z</time>
      </trkpt>
      <trkpt lat="38.234705" lon="-1.431568">
        <ele>172.7</ele>
        <time>2016-03-26T12:27:37Z</time>
      </trkpt>
      <trkpt lat="38.234907" lon="-1.431747">
        <ele>172.2</ele>
        <time>2016-03-26T12:27:54Z</time>
      </trkpt>
      <trkpt lat="38.235091" lon="-1.431911">
        <ele>172.7</ele>
        <time>2016-03-26T12:28:11Z</time>
      </trkpt>
      <trkpt lat="38.235286" lon="-1.432076">
        <ele>172.2</ele>
        <time>2016-03-26T12:28:28Z</time>
      </trkpt>
      <trkpt lat="38.235516" lon="-1.432282">
        <ele>172.2</ele>
        <time>2016-03-26T12:28:48Z</time>
      </trkpt>
      <trkpt lat="38.235740" lon="-1.432466">
        <ele>172.2</ele>
        <time>2016-03-26T12:29:07Z</time>
      </trkpt>
      <trkpt lat="38.235995" lon="-1.432485">
        <ele>172.2</ele>
        <time>2016-03-26T12:29:25Z</time>
      </trkpt>
      <trkpt lat="38.236192" lon="-1.432382">
        <ele>172.2</ele>
        <time>2016-03-26T12:29:40Z</time>
      </trkpt>
      <trkpt lat="38.236427" lon="-1.432111">
        <ele>172.2</ele>
        <time>2016-03-26T12:30:00Z</time>
      </trkpt>
      <trkpt lat="38.236561" lon="-1.431871">
        <ele>172.2</ele>
        <time>2016-03-26T12:30:17Z</time>
      </trkpt>
      <trkpt lat="38.236722" lon="-1.431625">
        <ele>172.7</ele>
        <time>2016-03-26T12:30:36Z</time>
      </trkpt>
      <trkpt lat="38.236891" lon="-1.431375">
        <ele>173.2</ele>
        <time>2016-03-26T12:30:56Z</time>
      </trkpt>
      <trkpt lat="38.237039" lon="-1.431138">
        <ele>173.7</ele>
        <time>2016-03-26T12:31:13Z</time>
      </trkpt>
      <trkpt lat="38.237125" lon="-1.431007">
        <ele>175.1</ele>
        <time>2016-03-26T12:31:23Z</time>
      </trkpt>
      <trkpt lat="38.237257" lon="-1.430790">
        <ele>175.1</ele>
        <time>2016-03-26T12:31:39Z</time>
      </trkpt>
      <trkpt lat="38.237297" lon="-1.430734">
        <ele>175.1</ele>
        <time>2016-03-26T12:31:44Z</time>
      </trkpt>
      <trkpt lat="38.237353" lon="-1.430582">
        <ele>174.6</ele>
        <time>2016-03-26T12:31:55Z</time>
      </trkpt>
      <trkpt lat="38.237367" lon="-1.430477">
        <ele>175.1</ele>
        <time>2016-03-26T12:32:02Z</time>
      </trkpt>
      <trkpt lat="38.237384" lon="-1.430432">
        <ele>174.6</ele>
        <time>2016-03-26T12:32:06Z</time>
      </trkpt>
      <trkpt lat="38.237452" lon="-1.430223">
        <ele>174.6</ele>
        <time>2016-03-26T12:32:21Z</time>
      </trkpt>
      <trkpt lat="38.237446" lon="-1.429971">
        <ele>175.1</ele>
        <time>2016-03-26T12:32:39Z</time>
      </trkpt>
      <trkpt lat="38.237445" lon="-1.429962">
        <ele>175.1</ele>
        <time>2016-03-26T12:32:40Z</time>
      </trkpt>
      <trkpt lat="38.237452" lon="-1.429853">
        <ele>175.1</ele>
        <time>2016-03-26T12:32:48Z</time>
      </trkpt>
      <trkpt lat="38.237425" lon="-1.429798">
        <ele>175.1</ele>
        <time>2016-03-26T12:33:03Z</time>
      </trkpt>
      <trkpt lat="38.237409" lon="-1.429720">
        <ele>175.6</ele>
        <time>2016-03-26T12:33:14Z</time>
      </trkpt>
      <trkpt lat="38.237372" lon="-1.429676">
        <ele>175.6</ele>
        <time>2016-03-26T12:33:31Z</time>
      </trkpt>
      <trkpt lat="38.237336" lon="-1.429578">
        <ele>177.5</ele>
        <time>2016-03-26T12:33:44Z</time>
      </trkpt>
      <trkpt lat="38.237337" lon="-1.429580">
        <ele>178.9</ele>
        <time>2016-03-26T12:33:59Z</time>
      </trkpt>
      <trkpt lat="38.237345" lon="-1.429574">
        <ele>178.5</ele>
        <time>2016-03-26T12:34:01Z</time>
      </trkpt>
      <trkpt lat="38.237369" lon="-1.429541">
        <ele>177.0</ele>
        <time>2016-03-26T12:34:04Z</time>
      </trkpt>
      <trkpt lat="38.237372" lon="-1.429506">
        <ele>178.5</ele>
        <time>2016-03-26T12:34:06Z</time>
      </trkpt>
      <trkpt lat="38.237369" lon="-1.429410">
        <ele>178.5</ele>
        <time>2016-03-26T12:34:18Z</time>
      </trkpt>
      <trkpt lat="38.237389" lon="-1.429352">
        <ele>178.5</ele>
        <time>2016-03-26T12:34:31Z</time>
      </trkpt>
      <trkpt lat="38.237413" lon="-1.429446">
        <ele>175.6</ele>
        <time>2016-03-26T12:34:42Z</time>
      </trkpt>
      <trkpt lat="38.237423" lon="-1.429443">
        <ele>175.1</ele>
        <time>2016-03-26T12:34:43Z</time>
      </trkpt>
      <trkpt lat="38.237525" lon="-1.429187">
        <ele>175.1</ele>
        <time>2016-03-26T12:35:00Z</time>
      </trkpt>
      <trkpt lat="38.237646" lon="-1.428906">
        <ele>175.1</ele>
        <time>2016-03-26T12:35:18Z</time>
      </trkpt>
      <trkpt lat="38.237754" lon="-1.428621">
        <ele>174.6</ele>
        <time>2016-03-26T12:35:35Z</time>
      </trkpt>
      <trkpt lat="38.237880" lon="-1.428407">
        <ele>175.1</ele>
        <time>2016-03-26T12:35:51Z</time>
      </trkpt>
      <trkpt lat="38.237966" lon="-1.428255">
        <ele>174.6</ele>
        <time>2016-03-26T12:36:04Z</time>
      </trkpt>
      <trkpt lat="38.238118" lon="-1.428044">
        <ele>174.6</ele>
        <time>2016-03-26T12:36:18Z</time>
      </trkpt>
      <trkpt lat="38.238201" lon="-1.427947">
        <ele>175.1</ele>
        <time>2016-03-26T12:36:33Z</time>
      </trkpt>
      <trkpt lat="38.238355" lon="-1.427803">
        <ele>175.1</ele>
        <time>2016-03-26T12:36:47Z</time>
      </trkpt>
      <trkpt lat="38.238560" lon="-1.427735">
        <ele>174.6</ele>
        <time>2016-03-26T12:37:02Z</time>
      </trkpt>
      <trkpt lat="38.238731" lon="-1.427675">
        <ele>173.7</ele>
        <time>2016-03-26T12:37:16Z</time>
      </trkpt>
      <trkpt lat="38.239010" lon="-1.427599">
        <ele>174.1</ele>
        <time>2016-03-26T12:37:31Z</time>
      </trkpt>
      <trkpt lat="38.239083" lon="-1.427585">
        <ele>174.6</ele>
        <time>2016-03-26T12:37:40Z</time>
      </trkpt>
      <trkpt lat="38.239317" lon="-1.427492">
        <ele>174.6</ele>
        <time>2016-03-26T12:37:55Z</time>
      </trkpt>
      <trkpt lat="38.239514" lon="-1.427456">
        <ele>174.1</ele>
        <time>2016-03-26T12:38:11Z</time>
      </trkpt>
      <trkpt lat="38.239583" lon="-1.427611">
        <ele>175.1</ele>
        <time>2016-03-26T12:38:25Z</time>
      </trkpt>
      <trkpt lat="38.239599" lon="-1.427690">
        <ele>174.6</ele>
        <time>2016-03-26T12:38:34Z</time>
      </trkpt>
      <trkpt lat="38.239688" lon="-1.427762">
        <ele>174.1</ele>
        <time>2016-03-26T12:38:43Z</time>
      </trkpt>
      <trkpt lat="38.239917" lon="-1.427826">
        <ele>174.6</ele>
        <time>2016-03-26T12:38:59Z</time>
      </trkpt>
      <trkpt lat="38.239958" lon="-1.427837">
        <ele>174.1</ele>
        <time>2016-03-26T12:39:02Z</time>
      </trkpt>
      <trkpt lat="38.240115" lon="-1.427895">
        <ele>174.6</ele>
        <time>2016-03-26T12:39:13Z</time>
      </trkpt>
      <trkpt lat="38.240125" lon="-1.427763">
        <ele>174.6</ele>
        <time>2016-03-26T12:39:21Z</time>
      </trkpt>
      <trkpt lat="38.240151" lon="-1.427629">
        <ele>174.6</ele>
        <time>2016-03-26T12:39:30Z</time>
      </trkpt>
      <trkpt lat="38.240455" lon="-1.427500">
        <ele>174.6</ele>
        <time>2016-03-26T12:39:50Z</time>
      </trkpt>
      <trkpt lat="38.240751" lon="-1.427370">
        <ele>174.6</ele>
        <time>2016-03-26T12:40:10Z</time>
      </trkpt>
      <trkpt lat="38.241023" lon="-1.427327">
        <ele>175.1</ele>
        <time>2016-03-26T12:40:29Z</time>
      </trkpt>
      <trkpt lat="38.241266" lon="-1.427223">
        <ele>174.1</ele>
        <time>2016-03-26T12:40:47Z</time>
      </trkpt>
      <trkpt lat="38.241472" lon="-1.427189">
        <ele>174.6</ele>
        <time>2016-03-26T12:41:06Z</time>
      </trkpt>
      <trkpt lat="38.241491" lon="-1.427181">
        <ele>174.6</ele>
        <time>2016-03-26T12:41:28Z</time>
      </trkpt>
      <trkpt lat="38.241602" lon="-1.427156">
        <ele>174.6</ele>
        <time>2016-03-26T12:41:46Z</time>
      </trkpt>
      <trkpt lat="38.241853" lon="-1.427013">
        <ele>175.1</ele>
        <time>2016-03-26T12:42:05Z</time>
      </trkpt>
      <trkpt lat="38.242042" lon="-1.426830">
        <ele>175.6</ele>
        <time>2016-03-26T12:42:23Z</time>
      </trkpt>
      <trkpt lat="38.242073" lon="-1.426817">
        <ele>175.6</ele>
        <time>2016-03-26T12:42:45Z</time>
      </trkpt>
      <trkpt lat="38.242305" lon="-1.426868">
        <ele>175.6</ele>
        <time>2016-03-26T12:43:01Z</time>
      </trkpt>
      <trkpt lat="38.242533" lon="-1.426911">
        <ele>175.6</ele>
        <time>2016-03-26T12:43:16Z</time>
      </trkpt>
      <trkpt lat="38.242688" lon="-1.426934">
        <ele>177.0</ele>
        <time>2016-03-26T12:43:32Z</time>
      </trkpt>
      <trkpt lat="38.242624" lon="-1.426962">
        <ele>178.0</ele>
        <time>2016-03-26T12:43:46Z</time>
      </trkpt>
      <trkpt lat="38.242509" lon="-1.426940">
        <ele>175.6</ele>
        <time>2016-03-26T12:43:56Z</time>
      </trkpt>
      <trkpt lat="38.242432" lon="-1.426936">
        <ele>176.1</ele>
        <time>2016-03-26T12:44:02Z</time>
      </trkpt>
      <trkpt lat="38.242280" lon="-1.426901">
        <ele>176.1</ele>
        <time>2016-03-26T12:44:17Z</time>
      </trkpt>
      <trkpt lat="38.242185" lon="-1.426887">
        <ele>175.6</ele>
        <time>2016-03-26T12:44:29Z</time>
      </trkpt>
      <trkpt lat="38.242098" lon="-1.426920">
        <ele>175.6</ele>
        <time>2016-03-26T12:44:34Z</time>
      </trkpt>
      <trkpt lat="38.241761" lon="-1.427140">
        <ele>176.1</ele>
        <time>2016-03-26T12:44:49Z</time>
      </trkpt>
      <trkpt lat="38.241656" lon="-1.427190">
        <ele>175.6</ele>
        <time>2016-03-26T12:45:03Z</time>
      </trkpt>
      <trkpt lat="38.241645" lon="-1.427203">
        <ele>175.6</ele>
        <time>2016-03-26T12:45:04Z</time>
      </trkpt>
      <trkpt lat="38.241631" lon="-1.427211">
        <ele>175.6</ele>
        <time>2016-03-26T12:45:05Z</time>
      </trkpt>
      <trkpt lat="38.241624" lon="-1.427214">
        <ele>175.6</ele>
        <time>2016-03-26T12:45:06Z</time>
      </trkpt>
      <trkpt lat="38.241610" lon="-1.427216">
        <ele>175.6</ele>
        <time>2016-03-26T12:45:07Z</time>
      </trkpt>
      <trkpt lat="38.241593" lon="-1.427216">
        <ele>175.6</ele>
        <time>2016-03-26T12:45:08Z</time>
      </trkpt>
      <trkpt lat="38.241370" lon="-1.427244">
        <ele>176.1</ele>
        <time>2016-03-26T12:45:19Z</time>
      </trkpt>
      <trkpt lat="38.241261" lon="-1.427258">
        <ele>175.1</ele>
        <time>2016-03-26T12:45:30Z</time>
      </trkpt>
      <trkpt lat="38.241011" lon="-1.427407">
        <ele>175.1</ele>
        <time>2016-03-26T12:45:45Z</time>
      </trkpt>
      <trkpt lat="38.240854" lon="-1.427432">
        <ele>175.6</ele>
        <time>2016-03-26T12:45:57Z</time>
      </trkpt>
      <trkpt lat="38.240709" lon="-1.427433">
        <ele>175.6</ele>
        <time>2016-03-26T12:46:14Z</time>
      </trkpt>
      <trkpt lat="38.240538" lon="-1.427512">
        <ele>175.1</ele>
        <time>2016-03-26T12:46:26Z</time>
      </trkpt>
      <trkpt lat="38.240276" lon="-1.427631">
        <ele>175.1</ele>
        <time>2016-03-26T12:46:38Z</time>
      </trkpt>
      <trkpt lat="38.240159" lon="-1.427749">
        <ele>174.6</ele>
        <time>2016-03-26T12:46:52Z</time>
      </trkpt>
      <trkpt lat="38.240276" lon="-1.427937">
        <ele>175.6</ele>
        <time>2016-03-26T12:47:06Z</time>
      </trkpt>
      <trkpt lat="38.240521" lon="-1.428014">
        <ele>175.6</ele>
        <time>2016-03-26T12:47:20Z</time>
      </trkpt>
      <trkpt lat="38.240705" lon="-1.428154">
        <ele>175.1</ele>
        <time>2016-03-26T12:47:38Z</time>
      </trkpt>
      <trkpt lat="38.240964" lon="-1.428339">
        <ele>175.6</ele>
        <time>2016-03-26T12:47:58Z</time>
      </trkpt>
      <trkpt lat="38.241177" lon="-1.428482">
        <ele>175.6</ele>
        <time>2016-03-26T12:48:15Z</time>
      </trkpt>
      <trkpt lat="38.241456" lon="-1.428715">
        <ele>175.6</ele>
        <time>2016-03-26T12:48:37Z</time>
      </trkpt>
      <trkpt lat="38.241594" lon="-1.428880">
        <ele>176.1</ele>
        <time>2016-03-26T12:48:52Z</time>
      </trkpt>
      <trkpt lat="38.241791" lon="-1.429028">
        <ele>176.5</ele>
        <time>2016-03-26T12:49:08Z</time>
      </trkpt>
      <trkpt lat="38.241882" lon="-1.429125">
        <ele>176.5</ele>
        <time>2016-03-26T12:49:22Z</time>
      </trkpt>
      <trkpt lat="38.241891" lon="-1.429126">
        <ele>176.1</ele>
        <time>2016-03-26T12:49:36Z</time>
      </trkpt>
      <trkpt lat="38.241905" lon="-1.429136">
        <ele>176.5</ele>
        <time>2016-03-26T12:49:37Z</time>
      </trkpt>
      <trkpt lat="38.241918" lon="-1.429148">
        <ele>176.1</ele>
        <time>2016-03-26T12:49:38Z</time>
      </trkpt>
      <trkpt lat="38.241926" lon="-1.429161">
        <ele>176.1</ele>
        <time>2016-03-26T12:49:39Z</time>
      </trkpt>
      <trkpt lat="38.241933" lon="-1.429175">
        <ele>176.5</ele>
        <time>2016-03-26T12:49:40Z</time>
      </trkpt>
      <trkpt lat="38.241941" lon="-1.429186">
        <ele>176.5</ele>
        <time>2016-03-26T12:49:41Z</time>
      </trkpt>
      <trkpt lat="38.241949" lon="-1.429198">
        <ele>176.1</ele>
        <time>2016-03-26T12:49:42Z</time>
      </trkpt>
      <trkpt lat="38.241975" lon="-1.429233">
        <ele>177.0</ele>
        <time>2016-03-26T12:49:45Z</time>
      </trkpt>
      <trkpt lat="38.241982" lon="-1.429247">
        <ele>176.5</ele>
        <time>2016-03-26T12:49:46Z</time>
      </trkpt>
      <trkpt lat="38.241991" lon="-1.429262">
        <ele>176.5</ele>
        <time>2016-03-26T12:49:47Z</time>
      </trkpt>
      <trkpt lat="38.242002" lon="-1.429277">
        <ele>176.5</ele>
        <time>2016-03-26T12:49:48Z</time>
      </trkpt>
      <trkpt lat="38.242011" lon="-1.429298">
        <ele>176.1</ele>
        <time>2016-03-26T12:49:49Z</time>
      </trkpt>
      <trkpt lat="38.242021" lon="-1.429323">
        <ele>176.5</ele>
        <time>2016-03-26T12:49:50Z</time>
      </trkpt>
      <trkpt lat="38.242027" lon="-1.429340">
        <ele>176.5</ele>
        <time>2016-03-26T12:49:51Z</time>
      </trkpt>
      <trkpt lat="38.242035" lon="-1.429356">
        <ele>176.1</ele>
        <time>2016-03-26T12:49:52Z</time>
      </trkpt>
      <trkpt lat="38.242201" lon="-1.429590">
        <ele>176.1</ele>
        <time>2016-03-26T12:50:33Z</time>
      </trkpt>
      <trkpt lat="38.242375" lon="-1.429764">
        <ele>175.6</ele>
        <time>2016-03-26T12:50:50Z</time>
      </trkpt>
      <trkpt lat="38.242407" lon="-1.429805">
        <ele>175.6</ele>
        <time>2016-03-26T12:50:55Z</time>
      </trkpt>
      <trkpt lat="38.242419" lon="-1.429820">
        <ele>175.6</ele>
        <time>2016-03-26T12:50:56Z</time>
      </trkpt>
      <trkpt lat="38.242690" lon="-1.430030">
        <ele>175.6</ele>
        <time>2016-03-26T12:51:14Z</time>
      </trkpt>
      <trkpt lat="38.242920" lon="-1.430177">
        <ele>175.6</ele>
        <time>2016-03-26T12:51:30Z</time>
      </trkpt>
      <trkpt lat="38.243083" lon="-1.430320">
        <ele>175.6</ele>
        <time>2016-03-26T12:51:48Z</time>
      </trkpt>
      <trkpt lat="38.243352" lon="-1.430423">
        <ele>176.5</ele>
        <time>2016-03-26T12:52:04Z</time>
      </trkpt>
      <trkpt lat="38.243552" lon="-1.430487">
        <ele>176.1</ele>
        <time>2016-03-26T12:52:18Z</time>
      </trkpt>
      <trkpt lat="38.243832" lon="-1.430666">
        <ele>176.1</ele>
        <time>2016-03-26T12:52:39Z</time>
      </trkpt>
      <trkpt lat="38.244088" lon="-1.430776">
        <ele>176.1</ele>
        <time>2016-03-26T12:52:58Z</time>
      </trkpt>
      <trkpt lat="38.244310" lon="-1.430822">
        <ele>177.0</ele>
        <time>2016-03-26T12:53:14Z</time>
      </trkpt>
      <trkpt lat="38.244411" lon="-1.430858">
        <ele>176.5</ele>
        <time>2016-03-26T12:53:26Z</time>
      </trkpt>
      <trkpt lat="38.244575" lon="-1.430910">
        <ele>176.1</ele>
        <time>2016-03-26T12:53:39Z</time>
      </trkpt>
      <trkpt lat="38.244771" lon="-1.431001">
        <ele>176.5</ele>
        <time>2016-03-26T12:53:53Z</time>
      </trkpt>
      <trkpt lat="38.245044" lon="-1.431135">
        <ele>176.5</ele>
        <time>2016-03-26T12:54:08Z</time>
      </trkpt>
      <trkpt lat="38.245295" lon="-1.431231">
        <ele>176.5</ele>
        <time>2016-03-26T12:54:24Z</time>
      </trkpt>
      <trkpt lat="38.245443" lon="-1.431352">
        <ele>176.5</ele>
        <time>2016-03-26T12:54:42Z</time>
      </trkpt>
      <trkpt lat="38.245721" lon="-1.431502">
        <ele>175.6</ele>
        <time>2016-03-26T12:54:58Z</time>
      </trkpt>
      <trkpt lat="38.245864" lon="-1.431604">
        <ele>176.1</ele>
        <time>2016-03-26T12:55:15Z</time>
      </trkpt>
      <trkpt lat="38.246144" lon="-1.431717">
        <ele>176.5</ele>
        <time>2016-03-26T12:55:29Z</time>
      </trkpt>
      <trkpt lat="38.246260" lon="-1.431796">
        <ele>176.5</ele>
        <time>2016-03-26T12:55:43Z</time>
      </trkpt>
      <trkpt lat="38.246267" lon="-1.431804">
        <ele>176.5</ele>
        <time>2016-03-26T12:55:44Z</time>
      </trkpt>
      <trkpt lat="38.246281" lon="-1.431818">
        <ele>176.1</ele>
        <time>2016-03-26T12:55:45Z</time>
      </trkpt>
      <trkpt lat="38.246295" lon="-1.431832">
        <ele>176.1</ele>
        <time>2016-03-26T12:55:46Z</time>
      </trkpt>
      <trkpt lat="38.246310" lon="-1.431847">
        <ele>176.5</ele>
        <time>2016-03-26T12:55:47Z</time>
      </trkpt>
      <trkpt lat="38.246330" lon="-1.431863">
        <ele>176.5</ele>
        <time>2016-03-26T12:55:48Z</time>
      </trkpt>
      <trkpt lat="38.246554" lon="-1.432082">
        <ele>176.1</ele>
        <time>2016-03-26T12:56:04Z</time>
      </trkpt>
      <trkpt lat="38.246683" lon="-1.432241">
        <ele>175.6</ele>
        <time>2016-03-26T12:56:18Z</time>
      </trkpt>
      <trkpt lat="38.246691" lon="-1.432255">
        <ele>176.1</ele>
        <time>2016-03-26T12:56:19Z</time>
      </trkpt>
      <trkpt lat="38.246700" lon="-1.432271">
        <ele>175.6</ele>
        <time>2016-03-26T12:56:20Z</time>
      </trkpt>
      <trkpt lat="38.246709" lon="-1.432288">
        <ele>175.6</ele>
        <time>2016-03-26T12:56:21Z</time>
      </trkpt>
      <trkpt lat="38.246720" lon="-1.432305">
        <ele>176.1</ele>
        <time>2016-03-26T12:56:22Z</time>
      </trkpt>
      <trkpt lat="38.246731" lon="-1.432322">
        <ele>175.6</ele>
        <time>2016-03-26T12:56:23Z</time>
      </trkpt>
      <trkpt lat="38.246913" lon="-1.432588">
        <ele>176.1</ele>
        <time>2016-03-26T12:56:37Z</time>
      </trkpt>
      <trkpt lat="38.247006" lon="-1.432744">
        <ele>176.5</ele>
        <time>2016-03-26T12:56:48Z</time>
      </trkpt>
      <trkpt lat="38.247078" lon="-1.432949">
        <ele>176.5</ele>
        <time>2016-03-26T12:57:05Z</time>
      </trkpt>
      <trkpt lat="38.247197" lon="-1.433306">
        <ele>176.5</ele>
        <time>2016-03-26T12:57:21Z</time>
      </trkpt>
      <trkpt lat="38.247189" lon="-1.433551">
        <ele>176.5</ele>
        <time>2016-03-26T12:57:36Z</time>
      </trkpt>
      <trkpt lat="38.247170" lon="-1.433586">
        <ele>176.5</ele>
        <time>2016-03-26T12:57:45Z</time>
      </trkpt>
      <trkpt lat="38.247169" lon="-1.433606">
        <ele>177.0</ele>
        <time>2016-03-26T12:57:46Z</time>
      </trkpt>
      <trkpt lat="38.247167" lon="-1.433625">
        <ele>176.5</ele>
        <time>2016-03-26T12:57:47Z</time>
      </trkpt>
      <trkpt lat="38.247101" lon="-1.433849">
        <ele>176.1</ele>
        <time>2016-03-26T12:57:59Z</time>
      </trkpt>
      <trkpt lat="38.247002" lon="-1.434084">
        <ele>176.1</ele>
        <time>2016-03-26T12:58:11Z</time>
      </trkpt>
      <trkpt lat="38.246930" lon="-1.434197">
        <ele>176.5</ele>
        <time>2016-03-26T12:58:24Z</time>
      </trkpt>
      <trkpt lat="38.246814" lon="-1.434502">
        <ele>176.1</ele>
        <time>2016-03-26T12:58:38Z</time>
      </trkpt>
      <trkpt lat="38.246715" lon="-1.434647">
        <ele>176.5</ele>
        <time>2016-03-26T12:58:54Z</time>
      </trkpt>
      <trkpt lat="38.246592" lon="-1.434898">
        <ele>177.0</ele>
        <time>2016-03-26T12:59:08Z</time>
      </trkpt>
      <trkpt lat="38.246433" lon="-1.435245">
        <ele>177.0</ele>
        <time>2016-03-26T12:59:23Z</time>
      </trkpt>
      <trkpt lat="38.246324" lon="-1.435366">
        <ele>176.5</ele>
        <time>2016-03-26T12:59:37Z</time>
      </trkpt>
      <trkpt lat="38.246208" lon="-1.435488">
        <ele>176.5</ele>
        <time>2016-03-26T12:59:52Z</time>
      </trkpt>
      <trkpt lat="38.246096" lon="-1.435842">
        <ele>176.5</ele>
        <time>2016-03-26T13:00:06Z</time>
      </trkpt>
      <trkpt lat="38.246073" lon="-1.436065">
        <ele>177.5</ele>
        <time>2016-03-26T13:00:18Z</time>
      </trkpt>
      <trkpt lat="38.246058" lon="-1.436092">
        <ele>177.0</ele>
        <time>2016-03-26T13:00:20Z</time>
      </trkpt>
      <trkpt lat="38.246018" lon="-1.436150">
        <ele>177.0</ele>
        <time>2016-03-26T13:00:31Z</time>
      </trkpt>
      <trkpt lat="38.245856" lon="-1.436415">
        <ele>177.5</ele>
        <time>2016-03-26T13:00:49Z</time>
      </trkpt>
      <trkpt lat="38.245710" lon="-1.436561">
        <ele>177.5</ele>
        <time>2016-03-26T13:01:04Z</time>
      </trkpt>
      <trkpt lat="38.245470" lon="-1.436755">
        <ele>177.5</ele>
        <time>2016-03-26T13:01:20Z</time>
      </trkpt>
      <trkpt lat="38.245243" lon="-1.436878">
        <ele>177.5</ele>
        <time>2016-03-26T13:01:39Z</time>
      </trkpt>
      <trkpt lat="38.245016" lon="-1.436996">
        <ele>177.5</ele>
        <time>2016-03-26T13:01:53Z</time>
      </trkpt>
      <trkpt lat="38.244816" lon="-1.437119">
        <ele>177.0</ele>
        <time>2016-03-26T13:02:10Z</time>
      </trkpt>
      <trkpt lat="38.244553" lon="-1.437251">
        <ele>177.5</ele>
        <time>2016-03-26T13:02:26Z</time>
      </trkpt>
      <trkpt lat="38.244302" lon="-1.437336">
        <ele>178.0</ele>
        <time>2016-03-26T13:02:41Z</time>
      </trkpt>
      <trkpt lat="38.244193" lon="-1.437380">
        <ele>178.0</ele>
        <time>2016-03-26T13:02:56Z</time>
      </trkpt>
      <trkpt lat="38.243964" lon="-1.437480">
        <ele>178.5</ele>
        <time>2016-03-26T13:03:11Z</time>
      </trkpt>
      <trkpt lat="38.243632" lon="-1.437700">
        <ele>178.5</ele>
        <time>2016-03-26T13:03:27Z</time>
      </trkpt>
      <trkpt lat="38.243541" lon="-1.437777">
        <ele>178.0</ele>
        <time>2016-03-26T13:03:41Z</time>
      </trkpt>
      <trkpt lat="38.243516" lon="-1.437804">
        <ele>178.0</ele>
        <time>2016-03-26T13:03:48Z</time>
      </trkpt>
      <trkpt lat="38.243494" lon="-1.437847">
        <ele>178.5</ele>
        <time>2016-03-26T13:03:52Z</time>
      </trkpt>
      <trkpt lat="38.243378" lon="-1.438124">
        <ele>178.0</ele>
        <time>2016-03-26T13:04:07Z</time>
      </trkpt>
      <trkpt lat="38.243268" lon="-1.438326">
        <ele>178.0</ele>
        <time>2016-03-26T13:04:22Z</time>
      </trkpt>
      <trkpt lat="38.243227" lon="-1.438428">
        <ele>177.5</ele>
        <time>2016-03-26T13:04:28Z</time>
      </trkpt>
      <trkpt lat="38.243108" lon="-1.438754">
        <ele>178.5</ele>
        <time>2016-03-26T13:04:42Z</time>
      </trkpt>
      <trkpt lat="38.242936" lon="-1.439075">
        <ele>178.9</ele>
        <time>2016-03-26T13:05:03Z</time>
      </trkpt>
      <trkpt lat="38.242750" lon="-1.439364">
        <ele>179.9</ele>
        <time>2016-03-26T13:05:21Z</time>
      </trkpt>
      <trkpt lat="38.242548" lon="-1.439720">
        <ele>179.9</ele>
        <time>2016-03-26T13:05:38Z</time>
      </trkpt>
      <trkpt lat="38.242463" lon="-1.439791">
        <ele>179.9</ele>
        <time>2016-03-26T13:05:52Z</time>
      </trkpt>
      <trkpt lat="38.242328" lon="-1.440059">
        <ele>180.4</ele>
        <time>2016-03-26T13:06:08Z</time>
      </trkpt>
      <trkpt lat="38.242219" lon="-1.440400">
        <ele>179.4</ele>
        <time>2016-03-26T13:06:24Z</time>
      </trkpt>
      <trkpt lat="38.242152" lon="-1.440694">
        <ele>178.9</ele>
        <time>2016-03-26T13:06:42Z</time>
      </trkpt>
      <trkpt lat="38.242054" lon="-1.441028">
        <ele>179.4</ele>
        <time>2016-03-26T13:07:01Z</time>
      </trkpt>
      <trkpt lat="38.242006" lon="-1.441342">
        <ele>178.9</ele>
        <time>2016-03-26T13:07:18Z</time>
      </trkpt>
      <trkpt lat="38.241987" lon="-1.441466">
        <ele>178.0</ele>
        <time>2016-03-26T13:07:31Z</time>
      </trkpt>
      <trkpt lat="38.241985" lon="-1.441491">
        <ele>178.9</ele>
        <time>2016-03-26T13:07:32Z</time>
      </trkpt>
      <trkpt lat="38.241988" lon="-1.441521">
        <ele>178.9</ele>
        <time>2016-03-26T13:07:33Z</time>
      </trkpt>
      <trkpt lat="38.241978" lon="-1.441562">
        <ele>178.0</ele>
        <time>2016-03-26T13:08:23Z</time>
      </trkpt>
      <trkpt lat="38.241958" lon="-1.441555">
        <ele>178.0</ele>
        <time>2016-03-26T13:08:25Z</time>
      </trkpt>
      <trkpt lat="38.241967" lon="-1.441535">
        <ele>178.0</ele>
        <time>2016-03-26T13:08:26Z</time>
      </trkpt>
      <trkpt lat="38.241972" lon="-1.441420">
        <ele>178.5</ele>
        <time>2016-03-26T13:08:36Z</time>
      </trkpt>
      <trkpt lat="38.241994" lon="-1.441253">
        <ele>178.5</ele>
        <time>2016-03-26T13:08:49Z</time>
      </trkpt>
      <trkpt lat="38.241996" lon="-1.441237">
        <ele>178.9</ele>
        <time>2016-03-26T13:08:50Z</time>
      </trkpt>
      <trkpt lat="38.241998" lon="-1.441218">
        <ele>178.5</ele>
        <time>2016-03-26T13:08:51Z</time>
      </trkpt>
      <trkpt lat="38.241998" lon="-1.441200">
        <ele>178.5</ele>
        <time>2016-03-26T13:08:52Z</time>
      </trkpt>
      <trkpt lat="38.242002" lon="-1.441181">
        <ele>178.5</ele>
        <time>2016-03-26T13:08:53Z</time>
      </trkpt>
      <trkpt lat="38.242091" lon="-1.440804">
        <ele>178.5</ele>
        <time>2016-03-26T13:09:13Z</time>
      </trkpt>
      <trkpt lat="38.242162" lon="-1.440515">
        <ele>178.5</ele>
        <time>2016-03-26T13:09:29Z</time>
      </trkpt>
      <trkpt lat="38.242218" lon="-1.440327">
        <ele>179.4</ele>
        <time>2016-03-26T13:09:40Z</time>
      </trkpt>
      <trkpt lat="38.242319" lon="-1.440031">
        <ele>178.9</ele>
        <time>2016-03-26T13:09:57Z</time>
      </trkpt>
      <trkpt lat="38.242472" lon="-1.439781">
        <ele>180.4</ele>
        <time>2016-03-26T13:10:13Z</time>
      </trkpt>
      <trkpt lat="38.242639" lon="-1.439533">
        <ele>180.4</ele>
        <time>2016-03-26T13:10:31Z</time>
      </trkpt>
      <trkpt lat="38.242783" lon="-1.439324">
        <ele>179.4</ele>
        <time>2016-03-26T13:10:46Z</time>
      </trkpt>
      <trkpt lat="38.242938" lon="-1.439099">
        <ele>179.4</ele>
        <time>2016-03-26T13:11:03Z</time>
      </trkpt>
      <trkpt lat="38.242951" lon="-1.439071">
        <ele>178.9</ele>
        <time>2016-03-26T13:11:05Z</time>
      </trkpt>
      <trkpt lat="38.243125" lon="-1.438780">
        <ele>179.9</ele>
        <time>2016-03-26T13:11:25Z</time>
      </trkpt>
      <trkpt lat="38.243179" lon="-1.438647">
        <ele>180.9</ele>
        <time>2016-03-26T13:11:33Z</time>
      </trkpt>
      <trkpt lat="38.243187" lon="-1.438616">
        <ele>177.5</ele>
        <time>2016-03-26T13:11:35Z</time>
      </trkpt>
      <trkpt lat="38.243190" lon="-1.438598">
        <ele>177.5</ele>
        <time>2016-03-26T13:11:36Z</time>
      </trkpt>
      <trkpt lat="38.243204" lon="-1.438556">
        <ele>180.4</ele>
        <time>2016-03-26T13:11:39Z</time>
      </trkpt>
      <trkpt lat="38.243217" lon="-1.438524">
        <ele>180.9</ele>
        <time>2016-03-26T13:11:41Z</time>
      </trkpt>
      <trkpt lat="38.243223" lon="-1.438507">
        <ele>179.0</ele>
        <time>2016-03-26T13:11:42Z</time>
      </trkpt>
      <trkpt lat="38.243358" lon="-1.438175">
        <ele>177.5</ele>
        <time>2016-03-26T13:12:02Z</time>
      </trkpt>
      <trkpt lat="38.243411" lon="-1.438049">
        <ele>177.5</ele>
        <time>2016-03-26T13:12:10Z</time>
      </trkpt>
      <trkpt lat="38.243417" lon="-1.438036">
        <ele>177.0</ele>
        <time>2016-03-26T13:12:11Z</time>
      </trkpt>
      <trkpt lat="38.243424" lon="-1.438019">
        <ele>177.5</ele>
        <time>2016-03-26T13:12:12Z</time>
      </trkpt>
      <trkpt lat="38.243429" lon="-1.438004">
        <ele>177.0</ele>
        <time>2016-03-26T13:12:13Z</time>
      </trkpt>
      <trkpt lat="38.243436" lon="-1.437991">
        <ele>177.5</ele>
        <time>2016-03-26T13:12:14Z</time>
      </trkpt>
      <trkpt lat="38.243444" lon="-1.437975">
        <ele>177.5</ele>
        <time>2016-03-26T13:12:15Z</time>
      </trkpt>
      <trkpt lat="38.243450" lon="-1.437959">
        <ele>177.0</ele>
        <time>2016-03-26T13:12:16Z</time>
      </trkpt>
      <trkpt lat="38.243491" lon="-1.437875">
        <ele>177.5</ele>
        <time>2016-03-26T13:12:21Z</time>
      </trkpt>
      <trkpt lat="38.243499" lon="-1.437859">
        <ele>177.5</ele>
        <time>2016-03-26T13:12:22Z</time>
      </trkpt>
      <trkpt lat="38.243508" lon="-1.437841">
        <ele>177.0</ele>
        <time>2016-03-26T13:12:23Z</time>
      </trkpt>
      <trkpt lat="38.243515" lon="-1.437824">
        <ele>177.5</ele>
        <time>2016-03-26T13:12:24Z</time>
      </trkpt>
      <trkpt lat="38.243521" lon="-1.437809">
        <ele>177.0</ele>
        <time>2016-03-26T13:12:25Z</time>
      </trkpt>
      <trkpt lat="38.243727" lon="-1.437607">
        <ele>177.5</ele>
        <time>2016-03-26T13:12:40Z</time>
      </trkpt>
      <trkpt lat="38.243867" lon="-1.437505">
        <ele>177.5</ele>
        <time>2016-03-26T13:12:52Z</time>
      </trkpt>
      <trkpt lat="38.243947" lon="-1.437446">
        <ele>178.0</ele>
        <time>2016-03-26T13:13:05Z</time>
      </trkpt>
      <trkpt lat="38.243983" lon="-1.437429">
        <ele>178.0</ele>
        <time>2016-03-26T13:13:06Z</time>
      </trkpt>
      <trkpt lat="38.244015" lon="-1.437424">
        <ele>178.0</ele>
        <time>2016-03-26T13:13:07Z</time>
      </trkpt>
      <trkpt lat="38.244253" lon="-1.437324">
        <ele>177.0</ele>
        <time>2016-03-26T13:13:21Z</time>
      </trkpt>
      <trkpt lat="38.244580" lon="-1.437212">
        <ele>177.0</ele>
        <time>2016-03-26T13:13:34Z</time>
      </trkpt>
      <trkpt lat="38.244752" lon="-1.437141">
        <ele>177.5</ele>
        <time>2016-03-26T13:13:47Z</time>
      </trkpt>
      <trkpt lat="38.244776" lon="-1.437127">
        <ele>177.0</ele>
        <time>2016-03-26T13:13:59Z</time>
      </trkpt>
      <trkpt lat="38.244772" lon="-1.437111">
        <ele>177.0</ele>
        <time>2016-03-26T13:14:00Z</time>
      </trkpt>
      <trkpt lat="38.244720" lon="-1.437132">
        <ele>177.5</ele>
        <time>2016-03-26T13:14:05Z</time>
      </trkpt>
      <trkpt lat="38.244614" lon="-1.437159">
        <ele>178.0</ele>
        <time>2016-03-26T13:14:13Z</time>
      </trkpt>
      <trkpt lat="38.244585" lon="-1.437045">
        <ele>178.5</ele>
        <time>2016-03-26T13:14:19Z</time>
      </trkpt>
      <trkpt lat="38.244562" lon="-1.436958">
        <ele>178.5</ele>
        <time>2016-03-26T13:14:29Z</time>
      </trkpt>
      <trkpt lat="38.244526" lon="-1.436814">
        <ele>178.5</ele>
        <time>2016-03-26T13:14:37Z</time>
      </trkpt>
      <trkpt lat="38.244708" lon="-1.436687">
        <ele>177.0</ele>
        <time>2016-03-26T13:14:50Z</time>
      </trkpt>
      <trkpt lat="38.244697" lon="-1.436662">
        <ele>176.5</ele>
        <time>2016-03-26T13:14:54Z</time>
      </trkpt>
      <trkpt lat="38.244626" lon="-1.436714">
        <ele>176.1</ele>
        <time>2016-03-26T13:14:59Z</time>
      </trkpt>
      <trkpt lat="38.244308" lon="-1.436881">
        <ele>176.5</ele>
        <time>2016-03-26T13:15:21Z</time>
      </trkpt>
      <trkpt lat="38.244092" lon="-1.436990">
        <ele>176.5</ele>
        <time>2016-03-26T13:15:36Z</time>
      </trkpt>
      <trkpt lat="38.243825" lon="-1.437170">
        <ele>177.0</ele>
        <time>2016-03-26T13:15:58Z</time>
      </trkpt>
      <trkpt lat="38.243799" lon="-1.437186">
        <ele>176.1</ele>
        <time>2016-03-26T13:16:01Z</time>
      </trkpt>
      <trkpt lat="38.243561" lon="-1.437290">
        <ele>176.1</ele>
        <time>2016-03-26T13:16:17Z</time>
      </trkpt>
      <trkpt lat="38.243326" lon="-1.437446">
        <ele>177.0</ele>
        <time>2016-03-26T13:16:34Z</time>
      </trkpt>
      <trkpt lat="38.243180" lon="-1.437694">
        <ele>176.1</ele>
        <time>2016-03-26T13:16:49Z</time>
      </trkpt>
      <trkpt lat="38.243061" lon="-1.437998">
        <ele>176.1</ele>
        <time>2016-03-26T13:17:08Z</time>
      </trkpt>
      <trkpt lat="38.242945" lon="-1.438371">
        <ele>176.5</ele>
        <time>2016-03-26T13:17:28Z</time>
      </trkpt>
      <trkpt lat="38.242810" lon="-1.438691">
        <ele>176.1</ele>
        <time>2016-03-26T13:17:47Z</time>
      </trkpt>
      <trkpt lat="38.242644" lon="-1.438924">
        <ele>176.5</ele>
        <time>2016-03-26T13:18:04Z</time>
      </trkpt>
      <trkpt lat="38.242456" lon="-1.439187">
        <ele>176.5</ele>
        <time>2016-03-26T13:18:23Z</time>
      </trkpt>
      <trkpt lat="38.242224" lon="-1.439540">
        <ele>177.5</ele>
        <time>2016-03-26T13:18:44Z</time>
      </trkpt>
      <trkpt lat="38.242057" lon="-1.439699">
        <ele>176.5</ele>
        <time>2016-03-26T13:19:02Z</time>
      </trkpt>
      <trkpt lat="38.241928" lon="-1.439964">
        <ele>176.5</ele>
        <time>2016-03-26T13:19:18Z</time>
      </trkpt>
      <trkpt lat="38.241945" lon="-1.439976">
        <ele>177.0</ele>
        <time>2016-03-26T13:19:27Z</time>
      </trkpt>
      <trkpt lat="38.242082" lon="-1.439698">
        <ele>176.5</ele>
        <time>2016-03-26T13:19:47Z</time>
      </trkpt>
      <trkpt lat="38.242150" lon="-1.439631">
        <ele>176.5</ele>
        <time>2016-03-26T13:19:51Z</time>
      </trkpt>
      <trkpt lat="38.242221" lon="-1.439571">
        <ele>177.0</ele>
        <time>2016-03-26T13:19:56Z</time>
      </trkpt>
      <trkpt lat="38.242417" lon="-1.439281">
        <ele>176.5</ele>
        <time>2016-03-26T13:20:17Z</time>
      </trkpt>
      <trkpt lat="38.242583" lon="-1.439012">
        <ele>176.5</ele>
        <time>2016-03-26T13:20:34Z</time>
      </trkpt>
      <trkpt lat="38.242704" lon="-1.438830">
        <ele>176.1</ele>
        <time>2016-03-26T13:20:50Z</time>
      </trkpt>
      <trkpt lat="38.242861" lon="-1.438578">
        <ele>176.1</ele>
        <time>2016-03-26T13:21:04Z</time>
      </trkpt>
      <trkpt lat="38.243038" lon="-1.438138">
        <ele>176.1</ele>
        <time>2016-03-26T13:21:28Z</time>
      </trkpt>
      <trkpt lat="38.243116" lon="-1.437849">
        <ele>176.1</ele>
        <time>2016-03-26T13:21:45Z</time>
      </trkpt>
      <trkpt lat="38.243263" lon="-1.437551">
        <ele>176.1</ele>
        <time>2016-03-26T13:22:03Z</time>
      </trkpt>
      <trkpt lat="38.243495" lon="-1.437340">
        <ele>176.1</ele>
        <time>2016-03-26T13:22:23Z</time>
      </trkpt>
      <trkpt lat="38.243734" lon="-1.437198">
        <ele>176.1</ele>
        <time>2016-03-26T13:22:41Z</time>
      </trkpt>
      <trkpt lat="38.244025" lon="-1.437043">
        <ele>176.1</ele>
        <time>2016-03-26T13:23:02Z</time>
      </trkpt>
      <trkpt lat="38.244306" lon="-1.436871">
        <ele>175.6</ele>
        <time>2016-03-26T13:23:22Z</time>
      </trkpt>
      <trkpt lat="38.244557" lon="-1.436737">
        <ele>175.1</ele>
        <time>2016-03-26T13:23:40Z</time>
      </trkpt>
      <trkpt lat="38.244768" lon="-1.436592">
        <ele>175.6</ele>
        <time>2016-03-26T13:23:56Z</time>
      </trkpt>
      <trkpt lat="38.244983" lon="-1.436348">
        <ele>175.6</ele>
        <time>2016-03-26T13:24:15Z</time>
      </trkpt>
      <trkpt lat="38.245204" lon="-1.436138">
        <ele>175.6</ele>
        <time>2016-03-26T13:24:34Z</time>
      </trkpt>
      <trkpt lat="38.245304" lon="-1.436048">
        <ele>175.1</ele>
        <time>2016-03-26T13:24:48Z</time>
      </trkpt>
      <trkpt lat="38.245400" lon="-1.435973">
        <ele>175.1</ele>
        <time>2016-03-26T13:25:04Z</time>
      </trkpt>
      <trkpt lat="38.245578" lon="-1.435855">
        <ele>175.6</ele>
        <time>2016-03-26T13:25:18Z</time>
      </trkpt>
      <trkpt lat="38.245790" lon="-1.435691">
        <ele>175.1</ele>
        <time>2016-03-26T13:25:33Z</time>
      </trkpt>
      <trkpt lat="38.245921" lon="-1.435542">
        <ele>175.1</ele>
        <time>2016-03-26T13:25:48Z</time>
      </trkpt>
      <trkpt lat="38.246080" lon="-1.435288">
        <ele>176.1</ele>
        <time>2016-03-26T13:26:04Z</time>
      </trkpt>
      <trkpt lat="38.246229" lon="-1.435016">
        <ele>175.6</ele>
        <time>2016-03-26T13:26:21Z</time>
      </trkpt>
      <trkpt lat="38.246333" lon="-1.434853">
        <ele>175.1</ele>
        <time>2016-03-26T13:26:35Z</time>
      </trkpt>
      <trkpt lat="38.246363" lon="-1.434812">
        <ele>175.6</ele>
        <time>2016-03-26T13:26:38Z</time>
      </trkpt>
      <trkpt lat="38.246372" lon="-1.434787">
        <ele>175.6</ele>
        <time>2016-03-26T13:26:39Z</time>
      </trkpt>
      <trkpt lat="38.246381" lon="-1.434763">
        <ele>175.6</ele>
        <time>2016-03-26T13:26:40Z</time>
      </trkpt>
      <trkpt lat="38.246389" lon="-1.434744">
        <ele>175.6</ele>
        <time>2016-03-26T13:26:41Z</time>
      </trkpt>
      <trkpt lat="38.246398" lon="-1.434726">
        <ele>175.6</ele>
        <time>2016-03-26T13:26:42Z</time>
      </trkpt>
      <trkpt lat="38.246413" lon="-1.434694">
        <ele>175.1</ele>
        <time>2016-03-26T13:26:44Z</time>
      </trkpt>
      <trkpt lat="38.246451" lon="-1.434641">
        <ele>175.6</ele>
        <time>2016-03-26T13:26:48Z</time>
      </trkpt>
      <trkpt lat="38.246459" lon="-1.434624">
        <ele>175.1</ele>
        <time>2016-03-26T13:26:49Z</time>
      </trkpt>
      <trkpt lat="38.246470" lon="-1.434607">
        <ele>175.1</ele>
        <time>2016-03-26T13:26:50Z</time>
      </trkpt>
      <trkpt lat="38.246596" lon="-1.434375">
        <ele>175.1</ele>
        <time>2016-03-26T13:27:03Z</time>
      </trkpt>
      <trkpt lat="38.246702" lon="-1.434204">
        <ele>175.6</ele>
        <time>2016-03-26T13:27:19Z</time>
      </trkpt>
      <trkpt lat="38.246838" lon="-1.433931">
        <ele>175.6</ele>
        <time>2016-03-26T13:27:33Z</time>
      </trkpt>
      <trkpt lat="38.246933" lon="-1.433742">
        <ele>175.1</ele>
        <time>2016-03-26T13:27:48Z</time>
      </trkpt>
      <trkpt lat="38.246986" lon="-1.433461">
        <ele>175.6</ele>
        <time>2016-03-26T13:28:01Z</time>
      </trkpt>
      <trkpt lat="38.246976" lon="-1.433205">
        <ele>175.6</ele>
        <time>2016-03-26T13:28:16Z</time>
      </trkpt>
      <trkpt lat="38.246970" lon="-1.433185">
        <ele>175.6</ele>
        <time>2016-03-26T13:28:17Z</time>
      </trkpt>
      <trkpt lat="38.246966" lon="-1.433167">
        <ele>176.1</ele>
        <time>2016-03-26T13:28:18Z</time>
      </trkpt>
      <trkpt lat="38.246847" lon="-1.432871">
        <ele>175.1</ele>
        <time>2016-03-26T13:28:37Z</time>
      </trkpt>
      <trkpt lat="38.246681" lon="-1.432630">
        <ele>175.6</ele>
        <time>2016-03-26T13:28:55Z</time>
      </trkpt>
      <trkpt lat="38.246524" lon="-1.432423">
        <ele>175.1</ele>
        <time>2016-03-26T13:29:11Z</time>
      </trkpt>
      <trkpt lat="38.246293" lon="-1.432184">
        <ele>175.6</ele>
        <time>2016-03-26T13:29:31Z</time>
      </trkpt>
      <trkpt lat="38.246079" lon="-1.432008">
        <ele>175.6</ele>
        <time>2016-03-26T13:29:49Z</time>
      </trkpt>
      <trkpt lat="38.246066" lon="-1.431994">
        <ele>175.1</ele>
        <time>2016-03-26T13:30:02Z</time>
      </trkpt>
      <trkpt lat="38.245863" lon="-1.431890">
        <ele>175.6</ele>
        <time>2016-03-26T13:30:17Z</time>
      </trkpt>
      <trkpt lat="38.245677" lon="-1.431815">
        <ele>174.6</ele>
        <time>2016-03-26T13:30:30Z</time>
      </trkpt>
      <trkpt lat="38.245527" lon="-1.431742">
        <ele>173.7</ele>
        <time>2016-03-26T13:30:42Z</time>
      </trkpt>
      <trkpt lat="38.245326" lon="-1.431668">
        <ele>173.7</ele>
        <time>2016-03-26T13:30:56Z</time>
      </trkpt>
      <trkpt lat="38.245107" lon="-1.431553">
        <ele>173.7</ele>
        <time>2016-03-26T13:31:08Z</time>
      </trkpt>
      <trkpt lat="38.244889" lon="-1.431434">
        <ele>174.6</ele>
        <time>2016-03-26T13:31:26Z</time>
      </trkpt>
      <trkpt lat="38.244711" lon="-1.431335">
        <ele>174.1</ele>
        <time>2016-03-26T13:31:40Z</time>
      </trkpt>
      <trkpt lat="38.244494" lon="-1.431269">
        <ele>173.7</ele>
        <time>2016-03-26T13:31:54Z</time>
      </trkpt>
      <trkpt lat="38.244394" lon="-1.431199">
        <ele>173.7</ele>
        <time>2016-03-26T13:32:09Z</time>
      </trkpt>
      <trkpt lat="38.244038" lon="-1.431140">
        <ele>173.7</ele>
        <time>2016-03-26T13:32:24Z</time>
      </trkpt>
      <trkpt lat="38.243883" lon="-1.431085">
        <ele>173.2</ele>
        <time>2016-03-26T13:32:40Z</time>
      </trkpt>
      <trkpt lat="38.243663" lon="-1.431020">
        <ele>173.2</ele>
        <time>2016-03-26T13:32:54Z</time>
      </trkpt>
      <trkpt lat="38.243490" lon="-1.430942">
        <ele>172.7</ele>
        <time>2016-03-26T13:33:10Z</time>
      </trkpt>
      <trkpt lat="38.243259" lon="-1.430872">
        <ele>172.7</ele>
        <time>2016-03-26T13:33:24Z</time>
      </trkpt>
      <trkpt lat="38.242982" lon="-1.430746">
        <ele>173.2</ele>
        <time>2016-03-26T13:33:41Z</time>
      </trkpt>
      <trkpt lat="38.242848" lon="-1.430681">
        <ele>173.2</ele>
        <time>2016-03-26T13:33:50Z</time>
      </trkpt>
      <trkpt lat="38.242702" lon="-1.430532">
        <ele>173.2</ele>
        <time>2016-03-26T13:34:07Z</time>
      </trkpt>
      <trkpt lat="38.242444" lon="-1.430395">
        <ele>172.7</ele>
        <time>2016-03-26T13:34:21Z</time>
      </trkpt>
      <trkpt lat="38.242335" lon="-1.430280">
        <ele>173.2</ele>
        <time>2016-03-26T13:34:36Z</time>
      </trkpt>
      <trkpt lat="38.242084" lon="-1.430137">
        <ele>172.7</ele>
        <time>2016-03-26T13:34:49Z</time>
      </trkpt>
      <trkpt lat="38.241944" lon="-1.429972">
        <ele>173.2</ele>
        <time>2016-03-26T13:35:03Z</time>
      </trkpt>
      <trkpt lat="38.241886" lon="-1.429850">
        <ele>173.2</ele>
        <time>2016-03-26T13:35:13Z</time>
      </trkpt>
      <trkpt lat="38.241685" lon="-1.429566">
        <ele>173.2</ele>
        <time>2016-03-26T13:35:29Z</time>
      </trkpt>
      <trkpt lat="38.241590" lon="-1.429392">
        <ele>172.7</ele>
        <time>2016-03-26T13:35:43Z</time>
      </trkpt>
      <trkpt lat="38.241398" lon="-1.429191">
        <ele>172.7</ele>
        <time>2016-03-26T13:35:58Z</time>
      </trkpt>
      <trkpt lat="38.241289" lon="-1.429025">
        <ele>172.7</ele>
        <time>2016-03-26T13:36:14Z</time>
      </trkpt>
      <trkpt lat="38.241028" lon="-1.428848">
        <ele>172.7</ele>
        <time>2016-03-26T13:36:29Z</time>
      </trkpt>
      <trkpt lat="38.240959" lon="-1.428729">
        <ele>172.7</ele>
        <time>2016-03-26T13:36:43Z</time>
      </trkpt>
      <trkpt lat="38.240748" lon="-1.428580">
        <ele>173.2</ele>
        <time>2016-03-26T13:36:56Z</time>
      </trkpt>
      <trkpt lat="38.240599" lon="-1.428450">
        <ele>173.7</ele>
        <time>2016-03-26T13:37:10Z</time>
      </trkpt>
      <trkpt lat="38.240426" lon="-1.428419">
        <ele>172.7</ele>
        <time>2016-03-26T13:37:24Z</time>
      </trkpt>
      <trkpt lat="38.240170" lon="-1.428379">
        <ele>172.7</ele>
        <time>2016-03-26T13:37:42Z</time>
      </trkpt>
      <trkpt lat="38.239921" lon="-1.428294">
        <ele>172.7</ele>
        <time>2016-03-26T13:37:59Z</time>
      </trkpt>
      <trkpt lat="38.239903" lon="-1.428293">
        <ele>172.7</ele>
        <time>2016-03-26T13:38:00Z</time>
      </trkpt>
      <trkpt lat="38.239672" lon="-1.428242">
        <ele>172.7</ele>
        <time>2016-03-26T13:38:16Z</time>
      </trkpt>
      <trkpt lat="38.239443" lon="-1.428180">
        <ele>173.2</ele>
        <time>2016-03-26T13:38:32Z</time>
      </trkpt>
      <trkpt lat="38.239203" lon="-1.428145">
        <ele>173.7</ele>
        <time>2016-03-26T13:38:47Z</time>
      </trkpt>
      <trkpt lat="38.239035" lon="-1.428118">
        <ele>173.7</ele>
        <time>2016-03-26T13:39:00Z</time>
      </trkpt>
      <trkpt lat="38.238801" lon="-1.428184">
        <ele>173.7</ele>
        <time>2016-03-26T13:39:14Z</time>
      </trkpt>
      <trkpt lat="38.238577" lon="-1.428301">
        <ele>174.6</ele>
        <time>2016-03-26T13:39:32Z</time>
      </trkpt>
      <trkpt lat="38.238409" lon="-1.428469">
        <ele>175.1</ele>
        <time>2016-03-26T13:39:46Z</time>
      </trkpt>
      <trkpt lat="38.238352" lon="-1.428555">
        <ele>175.1</ele>
        <time>2016-03-26T13:39:55Z</time>
      </trkpt>
      <trkpt lat="38.238328" lon="-1.428878">
        <ele>174.6</ele>
        <time>2016-03-26T13:40:10Z</time>
      </trkpt>
      <trkpt lat="38.238335" lon="-1.429166">
        <ele>174.1</ele>
        <time>2016-03-26T13:40:28Z</time>
      </trkpt>
      <trkpt lat="38.238257" lon="-1.429447">
        <ele>175.1</ele>
        <time>2016-03-26T13:40:39Z</time>
      </trkpt>
      <trkpt lat="38.238154" lon="-1.429580">
        <ele>176.1</ele>
        <time>2016-03-26T13:40:52Z</time>
      </trkpt>
      <trkpt lat="38.238030" lon="-1.429760">
        <ele>177.0</ele>
        <time>2016-03-26T13:41:05Z</time>
      </trkpt>
      <trkpt lat="38.237984" lon="-1.429847">
        <ele>178.0</ele>
        <time>2016-03-26T13:41:10Z</time>
      </trkpt>
      <trkpt lat="38.237976" lon="-1.429880">
        <ele>178.5</ele>
        <time>2016-03-26T13:41:13Z</time>
      </trkpt>
      <trkpt lat="38.237972" lon="-1.429893">
        <ele>178.0</ele>
        <time>2016-03-26T13:41:14Z</time>
      </trkpt>
      <trkpt lat="38.237932" lon="-1.430041">
        <ele>176.1</ele>
        <time>2016-03-26T13:41:26Z</time>
      </trkpt>
      <trkpt lat="38.237846" lon="-1.430292">
        <ele>175.1</ele>
        <time>2016-03-26T13:41:39Z</time>
      </trkpt>
      <trkpt lat="38.237778" lon="-1.430463">
        <ele>175.6</ele>
        <time>2016-03-26T13:41:50Z</time>
      </trkpt>
      <trkpt lat="38.237655" lon="-1.430730">
        <ele>174.6</ele>
        <time>2016-03-26T13:42:05Z</time>
      </trkpt>
      <trkpt lat="38.237581" lon="-1.430909">
        <ele>173.7</ele>
        <time>2016-03-26T13:42:20Z</time>
      </trkpt>
      <trkpt lat="38.237416" lon="-1.431178">
        <ele>172.7</ele>
        <time>2016-03-26T13:42:33Z</time>
      </trkpt>
      <trkpt lat="38.237300" lon="-1.431359">
        <ele>173.2</ele>
        <time>2016-03-26T13:42:46Z</time>
      </trkpt>
      <trkpt lat="38.237224" lon="-1.431539">
        <ele>172.7</ele>
        <time>2016-03-26T13:43:01Z</time>
      </trkpt>
      <trkpt lat="38.237107" lon="-1.431709">
        <ele>172.7</ele>
        <time>2016-03-26T13:43:13Z</time>
      </trkpt>
      <trkpt lat="38.236913" lon="-1.432019">
        <ele>172.7</ele>
        <time>2016-03-26T13:43:30Z</time>
      </trkpt>
      <trkpt lat="38.236797" lon="-1.432214">
        <ele>172.2</ele>
        <time>2016-03-26T13:43:45Z</time>
      </trkpt>
      <trkpt lat="38.236643" lon="-1.432419">
        <ele>172.7</ele>
        <time>2016-03-26T13:43:59Z</time>
      </trkpt>
      <trkpt lat="38.236468" lon="-1.432658">
        <ele>172.2</ele>
        <time>2016-03-26T13:44:16Z</time>
      </trkpt>
      <trkpt lat="38.236297" lon="-1.432852">
        <ele>172.2</ele>
        <time>2016-03-26T13:44:32Z</time>
      </trkpt>
      <trkpt lat="38.236293" lon="-1.432869">
        <ele>172.7</ele>
        <time>2016-03-26T13:44:33Z</time>
      </trkpt>
      <trkpt lat="38.236256" lon="-1.432908">
        <ele>172.7</ele>
        <time>2016-03-26T13:44:34Z</time>
      </trkpt>
      <trkpt lat="38.236227" lon="-1.433072">
        <ele>173.7</ele>
        <time>2016-03-26T13:44:45Z</time>
      </trkpt>
      <trkpt lat="38.236216" lon="-1.433161">
        <ele>174.6</ele>
        <time>2016-03-26T13:44:59Z</time>
      </trkpt>
    </trkseg>
  </trk>
</gpx>
